Dallas, OR (97338)

9:52 PM PDT on October 22, 2014 (GMT -0700)
City View | Change Station
CLOSE
Current Station
Personal Weather Station
Location: Dallas, OR
Elevation: 435 ft
Nearby Weather Stations

Elev 435 ft 44.92 °N, 123.33 °W | Updated 1 second ago

Rain
Rain
53.8 °F
Feels Like 53.8 °F
N
3.0
Wind Variable Wind from SSW
Gusts 5.0 mph

Today
High -- | Low -- °F
--% Chance of Precip.
Yesterday
High -- | Low -- °F
Precip. -- in
7:38 AM 6:16 PM
Waning Crescent, 1% visible
Pressure 29.75 in
Visibility 10.0 miles
Clouds Mostly Cloudy 2900 ft
Overcast 3500 ft
Dew Point 50 °F
Humidity 88%
Rainfall 1.46 in
Snow Depth Not available.
UV 0 out of 12
Pollen .30 out of 12
Air Quality Not available.
Flu Activity Sporadic
SPECI KSLE 230413Z AUTO 18009KT 10SM -RA BKN029 OVC035 14/12 A2975 RMK AO2 RAB05 P0000 T01390122

More Conditions Fewer Conditions

Pressure 29.75 in
Visibility 10.0 miles
Clouds Mostly Cloudy 2900 ft
Overcast 3500 ft
Dew Point 50 °F
Humidity 88%
Rainfall 1.46 in
Snow Depth Not available.
UV 0 out of 12
Pollen .30 out of 12
Air Quality Not available.
Flu Activity Sporadic
SPECI KSLE 230413Z AUTO 18009KT 10SM -RA BKN029 OVC035 14/12 A2975 RMK AO2 RAB05 P0000 T01390122

More Conditions Fewer Conditions

10-Day Weather Forecast

Almanac

Astronomy

Oct. 22, 2014 Rise Set
Actual Time 7:38 AM PDT 6:16 PM PDT
Civil Twilight 7:08 AM PDT 6:46 PM PDT
Nautical Twilight 6:34 AM PDT 7:20 PM PDT
Astronomical Twilight 6:00 AM PDT 7:54 PM PDT
Moon 6:22 AM PDT (10/22) 5:48 PM PDT (10/22)
Length of Visible Light 11h 38m
Length of Day
10h 38m
Tomorrow will be 2m 56s shorter.
Waning Crescent, 1% of the Moon is Illuminated
Oct 23
Waning Crescent
Oct 23
New
Oct 30
First Quarter
Nov 6
Full
Nov 14
Last Quarter

Yesterday's Extremes

State Highs State Lows

Community

WunderPhotos

Upload Photos

1,764,154 photos uploaded!

Nearby

Snow Depth

Station Depth Elevation
Saddle Mountain 6 in 3250 ft
Daly Lake 0 in 3600 ft
Jump Off Joe 1 in 3500 ft
Peavine Ridge 0 in 3500 ft
Marion Forks 0 in 2600 ft

Earthquake Activity

City Distance Mag. Time & Date
No recent earthquake activity has been reported nearby.
Minimum magnitude displayed is 2.5.

Coastal Water Temperatures

Place Temperature
No Stations Reporting

Nearby Weather Stations